sensor_id;sensor_type;location;lat;lon;timestamp;P1;durP1;ratioP1;P2;durP2;ratioP2
44850;SDS011;30583;48.714;9.386;2023-03-01T00:01:21;20.88;;;13.55;;
44850;SDS011;30583;48.714;9.386;2023-03-01T00:03:49;20.60;;;13.63;;
44850;SDS011;30583;48.714;9.386;2023-03-01T00:06:15;21.67;;;14.43;;
44850;SDS011;30583;48.714;9.386;2023-03-01T00:08:40;29.33;;;17.95;;
44850;SDS011;30583;48.714;9.386;2023-03-01T00:11:14;36.20;;;18.13;;
44850;SDS011;30583;48.714;9.386;2023-03-01T00:13:43;28.17;;;16.90;;
44850;SDS011;30583;48.714;9.386;2023-03-01T00:16:11;25.08;;;16.00;;
44850;SDS011;30583;48.714;9.386;2023-03-01T00:18:38;25.38;;;15.82;;
44850;SDS011;30583;48.714;9.386;2023-03-01T00:21:04;27.23;;;16.38;;
44850;SDS011;30583;48.714;9.386;2023-03-01T00:23:30;25.15;;;14.18;;
44850;SDS011;30583;48.714;9.386;2023-03-01T00:25:56;23.67;;;14.65;;
44850;SDS011;30583;48.714;9.386;2023-03-01T00:28:21;24.17;;;14.50;;
44850;SDS011;30583;48.714;9.386;2023-03-01T00:30:47;24.42;;;15.68;;
44850;SDS011;30583;48.714;9.386;2023-03-01T00:33:13;29.98;;;16.38;;
44850;SDS011;30583;48.714;9.386;2023-03-01T00:35:39;27.58;;;16.70;;
44850;SDS011;30583;48.714;9.386;2023-03-01T00:38:05;29.20;;;16.75;;
44850;SDS011;30583;48.714;9.386;2023-03-01T00:40:32;27.55;;;16.88;;
44850;SDS011;30583;48.714;9.386;2023-03-01T00:42:59;25.08;;;14.93;;
44850;SDS011;30583;48.714;9.386;2023-03-01T00:45:24;19.50;;;13.57;;
44850;SDS011;30583;48.714;9.386;2023-03-01T00:47:51;20.90;;;13.00;;
44850;SDS011;30583;48.714;9.386;2023-03-01T00:50:17;21.55;;;13.38;;
44850;SDS011;30583;48.714;9.386;2023-03-01T00:52:43;22.45;;;14.05;;
44850;SDS011;30583;48.714;9.386;2023-03-01T00:55:09;21.23;;;14.20;;
44850;SDS011;30583;48.714;9.386;2023-03-01T00:57:34;23.50;;;14.88;;
44850;SDS011;30583;48.714;9.386;2023-03-01T01:00:00;24.02;;;14.50;;
44850;SDS011;30583;48.714;9.386;2023-03-01T01:02:26;22.38;;;13.93;;
44850;SDS011;30583;48.714;9.386;2023-03-01T01:04:51;22.85;;;14.93;;
44850;SDS011;30583;48.714;9.386;2023-03-01T01:07:17;23.08;;;14.60;;
44850;SDS011;30583;48.714;9.386;2023-03-01T01:09:45;22.80;;;14.40;;
44850;SDS011;30583;48.714;9.386;2023-03-01T01:12:10;23.65;;;13.48;;
44850;SDS011;30583;48.714;9.386;2023-03-01T01:14:36;24.85;;;14.55;;
44850;SDS011;30583;48.714;9.386;2023-03-01T01:17:02;23.67;;;13.20;;
44850;SDS011;30583;48.714;9.386;2023-03-01T01:19:28;21.25;;;14.05;;
44850;SDS011;30583;48.714;9.386;2023-03-01T01:21:54;24.98;;;14.50;;
44850;SDS011;30583;48.714;9.386;2023-03-01T01:24:19;21.50;;;14.05;;
44850;SDS011;30583;48.714;9.386;2023-03-01T01:26:45;22.73;;;14.30;;
44850;SDS011;30583;48.714;9.386;2023-03-01T01:29:11;20.88;;;13.43;;
44850;SDS011;30583;48.714;9.386;2023-03-01T01:31:37;23.02;;;14.18;;
44850;SDS011;30583;48.714;9.386;2023-03-01T01:34:04;26.02;;;14.80;;
44850;SDS011;30583;48.714;9.386;2023-03-01T01:36:31;22.45;;;14.25;;
44850;SDS011;30583;48.714;9.386;2023-03-01T01:38:57;23.60;;;13.80;;
44850;SDS011;30583;48.714;9.386;2023-03-01T01:41:24;20.27;;;13.95;;
44850;SDS011;30583;48.714;9.386;2023-03-01T01:46:35;21.88;;;14.30;;
44850;SDS011;30583;48.714;9.386;2023-03-01T01:49:51;23.17;;;14.40;;
44850;SDS011;30583;48.714;9.386;2023-03-01T01:52:10;22.55;;;14.25;;
44850;SDS011;30583;48.714;9.386;2023-03-01T01:57:32;22.00;;;13.50;;
44850;SDS011;30583;48.714;9.386;2023-03-01T02:00:06;23.67;;;13.73;;
44850;SDS011;30583;48.714;9.386;2023-03-01T02:02:34;23.67;;;14.50;;
44850;SDS011;30583;48.714;9.386;2023-03-01T02:05:03;22.10;;;14.02;;
44850;SDS011;30583;48.714;9.386;2023-03-01T02:07:42;23.88;;;14.70;;
44850;SDS011;30583;48.714;9.386;2023-03-01T02:10:08;22.25;;;14.38;;
44850;SDS011;30583;48.714;9.386;2023-03-01T02:12:34;25.15;;;14.50;;
44850;SDS011;30583;48.714;9.386;2023-03-01T02:15:02;22.30;;;14.30;;
44850;SDS011;30583;48.714;9.386;2023-03-01T02:17:28;22.58;;;14.88;;
44850;SDS011;30583;48.714;9.386;2023-03-01T02:22:36;22.23;;;13.07;;
44850;SDS011;30583;48.714;9.386;2023-03-01T02:30:31;22.70;;;14.73;;
44850;SDS011;30583;48.714;9.386;2023-03-01T02:32:57;21.90;;;14.60;;
44850;SDS011;30583;48.714;9.386;2023-03-01T02:35:27;23.23;;;14.30;;
44850;SDS011;30583;48.714;9.386;2023-03-01T02:37:55;22.45;;;14.50;;
44850;SDS011;30583;48.714;9.386;2023-03-01T02:40:22;22.05;;;14.30;;
44850;SDS011;30583;48.714;9.386;2023-03-01T02:42:54;24.00;;;14.52;;
44850;SDS011;30583;48.714;9.386;2023-03-01T02:45:22;24.40;;;15.73;;
44850;SDS011;30583;48.714;9.386;2023-03-01T02:47:48;24.60;;;14.65;;
44850;SDS011;30583;48.714;9.386;2023-03-01T02:54:02;24.50;;;14.23;;
44850;SDS011;30583;48.714;9.386;2023-03-01T02:56:13;24.42;;;13.52;;
44850;SDS011;30583;48.714;9.386;2023-03-01T02:58:40;21.52;;;13.88;;
44850;SDS011;30583;48.714;9.386;2023-03-01T03:01:13;23.17;;;14.57;;
44850;SDS011;30583;48.714;9.386;2023-03-01T03:03:40;22.88;;;13.95;;
44850;SDS011;30583;48.714;9.386;2023-03-01T03:06:06;23.67;;;15.18;;
44850;SDS011;30583;48.714;9.386;2023-03-01T03:08:32;22.40;;;14.30;;
44850;SDS011;30583;48.714;9.386;2023-03-01T03:10:58;23.50;;;14.93;;
44850;SDS011;30583;48.714;9.386;2023-03-01T03:13:23;23.88;;;14.57;;
44850;SDS011;30583;48.714;9.386;2023-03-01T03:15:53;24.38;;;15.00;;
44850;SDS011;30583;48.714;9.386;2023-03-01T03:18:20;22.88;;;13.60;;
44850;SDS011;30583;48.714;9.386;2023-03-01T03:20:46;23.73;;;14.80;;
44850;SDS011;30583;48.714;9.386;2023-03-01T03:23:12;24.67;;;14.75;;
44850;SDS011;30583;48.714;9.386;2023-03-01T03:25:38;24.33;;;14.77;;
44850;SDS011;30583;48.714;9.386;2023-03-01T03:28:04;22.40;;;14.77;;
44850;SDS011;30583;48.714;9.386;2023-03-01T03:30:35;23.90;;;14.60;;
44850;SDS011;30583;48.714;9.386;2023-03-01T03:33:06;24.85;;;15.07;;
44850;SDS011;30583;48.714;9.386;2023-03-01T03:35:33;24.85;;;15.18;;
44850;SDS011;30583;48.714;9.386;2023-03-01T03:38:08;25.90;;;15.43;;
44850;SDS011;30583;48.714;9.386;2023-03-01T03:40:41;26.13;;;15.52;;
44850;SDS011;30583;48.714;9.386;2023-03-01T03:43:10;23.10;;;15.68;;
44850;SDS011;30583;48.714;9.386;2023-03-01T03:45:37;23.10;;;15.07;;
44850;SDS011;30583;48.714;9.386;2023-03-01T03:48:03;31.42;;;19.02;;
44850;SDS011;30583;48.714;9.386;2023-03-01T03:50:30;26.52;;;17.02;;
44850;SDS011;30583;48.714;9.386;2023-03-01T03:52:56;24.42;;;15.15;;
44850;SDS011;30583;48.714;9.386;2023-03-01T03:55:21;24.30;;;15.57;;
44850;SDS011;30583;48.714;9.386;2023-03-01T03:57:48;26.98;;;15.82;;
44850;SDS011;30583;48.714;9.386;2023-03-01T04:00:16;26.00;;;15.00;;
44850;SDS011;30583;48.714;9.386;2023-03-01T04:02:44;24.75;;;15.88;;
44850;SDS011;30583;48.714;9.386;2023-03-01T04:05:11;26.85;;;16.23;;
44850;SDS011;30583;48.714;9.386;2023-03-01T04:07:39;28.35;;;14.60;;
44850;SDS011;30583;48.714;9.386;2023-03-01T04:10:07;24.05;;;14.98;;
44850;SDS011;30583;48.714;9.386;2023-03-01T04:12:35;23.27;;;15.15;;
44850;SDS011;30583;48.714;9.386;2023-03-01T04:15:02;26.23;;;15.90;;
44850;SDS011;30583;48.714;9.386;2023-03-01T04:17:45;26.10;;;16.67;;
44850;SDS011;30583;48.714;9.386;2023-03-01T04:20:15;24.20;;;15.95;;
44850;SDS011;30583;48.714;9.386;2023-03-01T04:22:42;24.02;;;15.50;;
44850;SDS011;30583;48.714;9.386;2023-03-01T04:25:11;23.70;;;15.02;;
44850;SDS011;30583;48.714;9.386;2023-03-01T04:27:39;24.67;;;14.82;;
44850;SDS011;30583;48.714;9.386;2023-03-01T04:30:05;24.98;;;14.68;;
44850;SDS011;30583;48.714;9.386;2023-03-01T04:32:32;22.67;;;15.85;;
44850;SDS011;30583;48.714;9.386;2023-03-01T04:34:57;26.20;;;15.73;;
44850;SDS011;30583;48.714;9.386;2023-03-01T04:37:23;23.52;;;15.52;;
44850;SDS011;30583;48.714;9.386;2023-03-01T04:39:49;23.92;;;15.43;;
44850;SDS011;30583;48.714;9.386;2023-03-01T04:42:15;30.50;;;18.17;;
44850;SDS011;30583;48.714;9.386;2023-03-01T04:44:41;24.98;;;15.77;;
44850;SDS011;30583;48.714;9.386;2023-03-01T04:47:07;26.65;;;16.40;;
44850;SDS011;30583;48.714;9.386;2023-03-01T04:49:33;26.13;;;16.73;;
44850;SDS011;30583;48.714;9.386;2023-03-01T04:51:58;26.42;;;15.77;;
44850;SDS011;30583;48.714;9.386;2023-03-01T04:54:27;26.45;;;16.90;;
44850;SDS011;30583;48.714;9.386;2023-03-01T04:56:53;25.27;;;16.27;;
44850;SDS011;30583;48.714;9.386;2023-03-01T04:59:19;24.42;;;16.27;;
44850;SDS011;30583;48.714;9.386;2023-03-01T05:01:47;28.70;;;17.30;;
44850;SDS011;30583;48.714;9.386;2023-03-01T05:04:16;26.33;;;17.17;;
44850;SDS011;30583;48.714;9.386;2023-03-01T05:06:42;24.08;;;16.30;;
44850;SDS011;30583;48.714;9.386;2023-03-01T05:09:08;25.58;;;16.48;;
44850;SDS011;30583;48.714;9.386;2023-03-01T05:11:33;27.17;;;16.80;;
44850;SDS011;30583;48.714;9.386;2023-03-01T05:14:09;26.65;;;16.10;;
44850;SDS011;30583;48.714;9.386;2023-03-01T05:16:35;24.13;;;16.13;;
44850;SDS011;30583;48.714;9.386;2023-03-01T05:19:02;24.38;;;16.05;;
44850;SDS011;30583;48.714;9.386;2023-03-01T05:21:36;26.55;;;16.73;;
44850;SDS011;30583;48.714;9.386;2023-03-01T05:24:23;28.70;;;17.63;;
44850;SDS011;30583;48.714;9.386;2023-03-01T05:26:49;27.60;;;17.42;;
44850;SDS011;30583;48.714;9.386;2023-03-01T05:29:16;25.88;;;15.85;;
44850;SDS011;30583;48.714;9.386;2023-03-01T05:31:43;25.73;;;16.92;;
44850;SDS011;30583;48.714;9.386;2023-03-01T05:34:08;24.40;;;16.98;;
44850;SDS011;30583;48.714;9.386;2023-03-01T05:36:34;24.65;;;15.70;;
44850;SDS011;30583;48.714;9.386;2023-03-01T05:38:59;25.38;;;16.27;;
44850;SDS011;30583;48.714;9.386;2023-03-01T05:41:25;24.88;;;16.15;;
44850;SDS011;30583;48.714;9.386;2023-03-01T05:43:51;24.17;;;15.95;;
44850;SDS011;30583;48.714;9.386;2023-03-01T05:46:16;21.90;;;15.15;;
44850;SDS011;30583;48.714;9.386;2023-03-01T05:48:42;29.15;;;16.45;;
44850;SDS011;30583;48.714;9.386;2023-03-01T05:51:08;26.85;;;16.08;;
44850;SDS011;30583;48.714;9.386;2023-03-01T05:53:34;23.63;;;15.77;;
44850;SDS011;30583;48.714;9.386;2023-03-01T05:55:59;27.58;;;16.80;;
44850;SDS011;30583;48.714;9.386;2023-03-01T05:58:28;25.58;;;15.48;;
44850;SDS011;30583;48.714;9.386;2023-03-01T06:00:54;26.58;;;16.65;;
44850;SDS011;30583;48.714;9.386;2023-03-01T06:03:19;25.10;;;16.17;;
44850;SDS011;30583;48.714;9.386;2023-03-01T06:05:45;24.80;;;15.90;;
44850;SDS011;30583;48.714;9.386;2023-03-01T06:08:11;28.15;;;15.13;;
44850;SDS011;30583;48.714;9.386;2023-03-01T06:10:37;23.75;;;16.38;;
44850;SDS011;30583;48.714;9.386;2023-03-01T06:13:03;26.92;;;16.10;;
44850;SDS011;30583;48.714;9.386;2023-03-01T06:15:28;22.33;;;15.07;;
44850;SDS011;30583;48.714;9.386;2023-03-01T06:17:54;28.48;;;16.42;;
44850;SDS011;30583;48.714;9.386;2023-03-01T06:20:22;24.33;;;14.98;;
44850;SDS011;30583;48.714;9.386;2023-03-01T06:22:49;25.02;;;16.08;;
44850;SDS011;30583;48.714;9.386;2023-03-01T06:25:16;26.35;;;15.88;;
44850;SDS011;30583;48.714;9.386;2023-03-01T06:27:43;25.38;;;15.57;;
44850;SDS011;30583;48.714;9.386;2023-03-01T06:30:10;25.35;;;16.10;;
44850;SDS011;30583;48.714;9.386;2023-03-01T06:32:38;26.55;;;16.17;;
44850;SDS011;30583;48.714;9.386;2023-03-01T06:35:07;24.45;;;15.07;;
44850;SDS011;30583;48.714;9.386;2023-03-01T06:37:32;27.83;;;16.73;;
44850;SDS011;30583;48.714;9.386;2023-03-01T06:40:00;26.55;;;16.15;;
44850;SDS011;30583;48.714;9.386;2023-03-01T06:42:31;25.90;;;16.10;;
44850;SDS011;30583;48.714;9.386;2023-03-01T06:44:57;26.02;;;16.65;;
44850;SDS011;30583;48.714;9.386;2023-03-01T06:47:22;25.13;;;17.20;;
44850;SDS011;30583;48.714;9.386;2023-03-01T06:49:48;28.52;;;18.23;;
44850;SDS011;30583;48.714;9.386;2023-03-01T06:52:14;27.65;;;17.25;;
44850;SDS011;30583;48.714;9.386;2023-03-01T06:54:39;25.25;;;16.00;;
44850;SDS011;30583;48.714;9.386;2023-03-01T06:57:05;28.92;;;19.13;;
44850;SDS011;30583;48.714;9.386;2023-03-01T06:59:30;29.80;;;18.25;;
44850;SDS011;30583;48.714;9.386;2023-03-01T07:01:56;28.10;;;16.98;;
44850;SDS011;30583;48.714;9.386;2023-03-01T07:04:22;28.90;;;18.02;;
44850;SDS011;30583;48.714;9.386;2023-03-01T07:06:47;30.55;;;17.95;;
44850;SDS011;30583;48.714;9.386;2023-03-01T07:09:19;31.10;;;18.25;;
44850;SDS011;30583;48.714;9.386;2023-03-01T07:11:46;29.77;;;18.20;;
44850;SDS011;30583;48.714;9.386;2023-03-01T07:14:12;28.27;;;18.83;;
44850;SDS011;30583;48.714;9.386;2023-03-01T07:16:38;27.20;;;17.00;;
44850;SDS011;30583;48.714;9.386;2023-03-01T07:19:03;29.50;;;16.70;;
44850;SDS011;30583;48.714;9.386;2023-03-01T07:21:30;26.95;;;17.33;;
44850;SDS011;30583;48.714;9.386;2023-03-01T07:23:56;29.65;;;18.52;;
44850;SDS011;30583;48.714;9.386;2023-03-01T07:26:22;26.13;;;16.63;;
44850;SDS011;30583;48.714;9.386;2023-03-01T07:28:47;29.40;;;16.92;;
44850;SDS011;30583;48.714;9.386;2023-03-01T07:31:13;26.05;;;16.85;;
44850;SDS011;30583;48.714;9.386;2023-03-01T07:33:39;29.83;;;17.15;;
44850;SDS011;30583;48.714;9.386;2023-03-01T07:36:05;29.45;;;16.65;;
44850;SDS011;30583;48.714;9.386;2023-03-01T07:38:31;25.88;;;16.80;;
44850;SDS011;30583;48.714;9.386;2023-03-01T07:40:57;27.88;;;16.90;;
44850;SDS011;30583;48.714;9.386;2023-03-01T07:43:27;31.02;;;19.60;;
44850;SDS011;30583;48.714;9.386;2023-03-01T07:45:54;28.48;;;18.58;;
44850;SDS011;30583;48.714;9.386;2023-03-01T07:48:19;30.15;;;18.65;;
44850;SDS011;30583;48.714;9.386;2023-03-01T07:50:45;31.33;;;19.27;;
44850;SDS011;30583;48.714;9.386;2023-03-01T07:53:10;29.98;;;17.98;;
44850;SDS011;30583;48.714;9.386;2023-03-01T07:55:36;26.13;;;17.60;;
44850;SDS011;30583;48.714;9.386;2023-03-01T07:58:02;31.17;;;19.63;;
44850;SDS011;30583;48.714;9.386;2023-03-01T08:00:28;28.48;;;19.00;;
44850;SDS011;30583;48.714;9.386;2023-03-01T08:02:53;36.40;;;23.38;;
44850;SDS011;30583;48.714;9.386;2023-03-01T08:05:19;31.05;;;19.55;;
44850;SDS011;30583;48.714;9.386;2023-03-01T08:07:47;33.10;;;20.70;;
44850;SDS011;30583;48.714;9.386;2023-03-01T08:10:12;27.50;;;18.60;;
44850;SDS011;30583;48.714;9.386;2023-03-01T08:12:38;29.10;;;19.17;;
44850;SDS011;30583;48.714;9.386;2023-03-01T08:15:03;30.38;;;18.30;;
44850;SDS011;30583;48.714;9.386;2023-03-01T08:17:29;27.63;;;18.30;;
44850;SDS011;30583;48.714;9.386;2023-03-01T08:19:55;30.27;;;17.90;;
44850;SDS011;30583;48.714;9.386;2023-03-01T08:22:20;31.17;;;19.13;;
44850;SDS011;30583;48.714;9.386;2023-03-01T08:24:46;34.17;;;20.20;;
44850;SDS011;30583;48.714;9.386;2023-03-01T08:27:11;32.72;;;18.88;;
44850;SDS011;30583;48.714;9.386;2023-03-01T08:29:38;34.15;;;18.02;;
44850;SDS011;30583;48.714;9.386;2023-03-01T08:32:03;29.33;;;18.15;;
44850;SDS011;30583;48.714;9.386;2023-03-01T08:34:29;26.38;;;17.67;;
44850;SDS011;30583;48.714;9.386;2023-03-01T08:36:56;28.27;;;18.40;;
44850;SDS011;30583;48.714;9.386;2023-03-01T08:39:22;29.88;;;17.48;;
44850;SDS011;30583;48.714;9.386;2023-03-01T08:41:47;29.67;;;18.83;;
44850;SDS011;30583;48.714;9.386;2023-03-01T08:44:14;31.38;;;18.38;;
44850;SDS011;30583;48.714;9.386;2023-03-01T08:46:41;28.38;;;18.00;;
44850;SDS011;30583;48.714;9.386;2023-03-01T08:49:12;29.40;;;17.90;;
44850;SDS011;30583;48.714;9.386;2023-03-01T08:51:39;30.48;;;18.15;;
44850;SDS011;30583;48.714;9.386;2023-03-01T08:54:06;29.63;;;18.20;;
44850;SDS011;30583;48.714;9.386;2023-03-01T08:56:35;28.25;;;17.48;;
44850;SDS011;30583;48.714;9.386;2023-03-01T08:59:01;28.50;;;18.52;;
44850;SDS011;30583;48.714;9.386;2023-03-01T09:01:27;28.17;;;16.55;;
44850;SDS011;30583;48.714;9.386;2023-03-01T09:03:53;29.27;;;17.67;;
44850;SDS011;30583;48.714;9.386;2023-03-01T09:06:19;31.35;;;18.58;;
44850;SDS011;30583;48.714;9.386;2023-03-01T09:08:45;29.60;;;18.45;;
44850;SDS011;30583;48.714;9.386;2023-03-01T09:11:17;30.60;;;17.23;;
44850;SDS011;30583;48.714;9.386;2023-03-01T09:13:46;24.23;;;15.57;;
44850;SDS011;30583;48.714;9.386;2023-03-01T09:16:13;28.40;;;15.00;;
44850;SDS011;30583;48.714;9.386;2023-03-01T09:18:40;23.48;;;11.73;;
44850;SDS011;30583;48.714;9.386;2023-03-01T09:21:07;26.38;;;13.18;;
44850;SDS011;30583;48.714;9.386;2023-03-01T09:23:35;25.10;;;13.85;;
44850;SDS011;30583;48.714;9.386;2023-03-01T09:26:02;24.58;;;13.95;;
44850;SDS011;30583;48.714;9.386;2023-03-01T09:28:27;23.17;;;13.07;;
44850;SDS011;30583;48.714;9.386;2023-03-01T09:30:53;21.48;;;14.60;;
44850;SDS011;30583;48.714;9.386;2023-03-01T09:33:22;24.55;;;15.32;;
44850;SDS011;30583;48.714;9.386;2023-03-01T09:35:47;19.48;;;11.80;;
44850;SDS011;30583;48.714;9.386;2023-03-01T09:38:13;21.00;;;12.55;;
44850;SDS011;30583;48.714;9.386;2023-03-01T09:40:42;22.20;;;15.05;;
44850;SDS011;30583;48.714;9.386;2023-03-01T09:43:19;25.48;;;17.13;;
44850;SDS011;30583;48.714;9.386;2023-03-01T09:45:52;21.33;;;14.52;;
44850;SDS011;30583;48.714;9.386;2023-03-01T09:48:20;20.00;;;12.05;;
44850;SDS011;30583;48.714;9.386;2023-03-01T09:50:49;23.73;;;16.35;;
44850;SDS011;30583;48.714;9.386;2023-03-01T09:53:16;22.67;;;16.42;;
44850;SDS011;30583;48.714;9.386;2023-03-01T09:55:59;25.23;;;15.25;;
44850;SDS011;30583;48.714;9.386;2023-03-01T10:03:43;22.15;;;13.20;;
44850;SDS011;30583;48.714;9.386;2023-03-01T10:06:15;18.38;;;13.57;;
44850;SDS011;30583;48.714;9.386;2023-03-01T10:09:00;21.90;;;16.15;;
44850;SDS011;30583;48.714;9.386;2023-03-01T10:11:35;21.20;;;13.93;;
44850;SDS011;30583;48.714;9.386;2023-03-01T10:16:59;21.27;;;12.90;;
44850;SDS011;30583;48.714;9.386;2023-03-01T10:22:02;21.35;;;14.40;;
44850;SDS011;30583;48.714;9.386;2023-03-01T10:24:49;23.58;;;15.52;;
44850;SDS011;30583;48.714;9.386;2023-03-01T10:27:19;21.08;;;13.90;;
44850;SDS011;30583;48.714;9.386;2023-03-01T10:29:50;20.42;;;12.52;;
44850;SDS011;30583;48.714;9.386;2023-03-01T10:32:21;21.30;;;15.20;;
44850;SDS011;30583;48.714;9.386;2023-03-01T10:34:47;21.65;;;15.38;;
44850;SDS011;30583;48.714;9.386;2023-03-01T10:37:20;20.45;;;14.07;;
44850;SDS011;30583;48.714;9.386;2023-03-01T10:39:57;19.77;;;14.65;;
44850;SDS011;30583;48.714;9.386;2023-03-01T10:42:27;16.38;;;11.45;;
44850;SDS011;30583;48.714;9.386;2023-03-01T10:45:14;19.27;;;13.15;;
44850;SDS011;30583;48.714;9.386;2023-03-01T10:50:43;17.15;;;10.60;;
44850;SDS011;30583;48.714;9.386;2023-03-01T10:56:04;22.83;;;15.63;;
44850;SDS011;30583;48.714;9.386;2023-03-01T10:58:32;17.13;;;10.75;;
44850;SDS011;30583;48.714;9.386;2023-03-01T11:01:01;25.17;;;15.77;;
44850;SDS011;30583;48.714;9.386;2023-03-01T11:03:36;22.48;;;15.27;;
44850;SDS011;30583;48.714;9.386;2023-03-01T11:06:21;23.02;;;15.50;;
44850;SDS011;30583;48.714;9.386;2023-03-01T11:08:48;21.30;;;15.00;;
44850;SDS011;30583;48.714;9.386;2023-03-01T11:11:18;22.02;;;15.48;;
44850;SDS011;30583;48.714;9.386;2023-03-01T11:21:38;22.15;;;15.98;;
44850;SDS011;30583;48.714;9.386;2023-03-01T11:24:11;20.98;;;14.95;;
44850;SDS011;30583;48.714;9.386;2023-03-01T11:26:40;21.65;;;15.18;;
44850;SDS011;30583;48.714;9.386;2023-03-01T11:29:13;21.67;;;15.10;;
44850;SDS011;30583;48.714;9.386;2023-03-01T11:31:55;21.75;;;14.93;;
44850;SDS011;30583;48.714;9.386;2023-03-01T11:34:45;24.48;;;16.17;;
44850;SDS011;30583;48.714;9.386;2023-03-01T11:37:37;21.20;;;14.45;;
44850;SDS011;30583;48.714;9.386;2023-03-01T11:42:40;19.95;;;14.23;;
44850;SDS011;30583;48.714;9.386;2023-03-01T11:45:22;21.40;;;14.43;;
44850;SDS011;30583;48.714;9.386;2023-03-01T11:50:50;18.77;;;13.93;;
44850;SDS011;30583;48.714;9.386;2023-03-01T11:56:09;19.83;;;14.50;;
44850;SDS011;30583;48.714;9.386;2023-03-01T12:04:32;19.00;;;13.65;;
44850;SDS011;30583;48.714;9.386;2023-03-01T12:07:24;19.58;;;14.50;;
44850;SDS011;30583;48.714;9.386;2023-03-01T12:10:10;21.10;;;14.68;;
44850;SDS011;30583;48.714;9.386;2023-03-01T12:12:58;20.10;;;14.20;;
44850;SDS011;30583;48.714;9.386;2023-03-01T12:15:51;21.13;;;15.63;;
44850;SDS011;30583;48.714;9.386;2023-03-01T12:21:29;22.10;;;14.68;;
44850;SDS011;30583;48.714;9.386;2023-03-01T12:24:22;22.80;;;15.27;;
44850;SDS011;30583;48.714;9.386;2023-03-01T12:26:58;19.52;;;14.20;;
44850;SDS011;30583;48.714;9.386;2023-03-01T12:29:37;20.02;;;13.73;;
44850;SDS011;30583;48.714;9.386;2023-03-01T12:32:47;19.52;;;13.93;;
44850;SDS011;30583;48.714;9.386;2023-03-01T12:35:39;19.65;;;13.10;;
44850;SDS011;30583;48.714;9.386;2023-03-01T12:43:41;28.55;;;16.50;;
44850;SDS011;30583;48.714;9.386;2023-03-01T12:46:26;22.27;;;15.52;;
44850;SDS011;30583;48.714;9.386;2023-03-01T12:49:19;21.88;;;14.80;;
44850;SDS011;30583;48.714;9.386;2023-03-01T12:54:33;18.60;;;13.93;;
44850;SDS011;30583;48.714;9.386;2023-03-01T13:02:35;23.23;;;15.40;;
44850;SDS011;30583;48.714;9.386;2023-03-01T13:07:54;21.80;;;14.93;;
44850;SDS011;30583;48.714;9.386;2023-03-01T13:10:34;20.33;;;14.65;;
44850;SDS011;30583;48.714;9.386;2023-03-01T13:13:13;22.58;;;15.10;;
44850;SDS011;30583;48.714;9.386;2023-03-01T13:15:43;21.55;;;14.73;;
44850;SDS011;30583;48.714;9.386;2023-03-01T13:31:01;22.23;;;15.05;;
44850;SDS011;30583;48.714;9.386;2023-03-01T13:35:59;21.75;;;13.68;;
44850;SDS011;30583;48.714;9.386;2023-03-01T13:41:17;18.55;;;14.27;;
44850;SDS011;30583;48.714;9.386;2023-03-01T13:46:56;19.77;;;12.38;;
44850;SDS011;30583;48.714;9.386;2023-03-01T13:49:49;18.50;;;13.65;;
44850;SDS011;30583;48.714;9.386;2023-03-01T13:54:53;20.85;;;13.50;;
44850;SDS011;30583;48.714;9.386;2023-03-01T13:57:21;20.27;;;13.23;;
44850;SDS011;30583;48.714;9.386;2023-03-01T13:59:51;22.15;;;13.15;;
44850;SDS011;30583;48.714;9.386;2023-03-01T14:02:16;19.05;;;12.07;;
44850;SDS011;30583;48.714;9.386;2023-03-01T14:04:42;19.60;;;13.70;;
44850;SDS011;30583;48.714;9.386;2023-03-01T14:07:26;19.42;;;12.50;;
44850;SDS011;30583;48.714;9.386;2023-03-01T14:09:56;16.80;;;12.10;;
44850;SDS011;30583;48.714;9.386;2023-03-01T14:20:58;19.50;;;13.57;;
44850;SDS011;30583;48.714;9.386;2023-03-01T14:23:24;19.98;;;12.77;;
44850;SDS011;30583;48.714;9.386;2023-03-01T14:25:53;18.35;;;13.05;;
44850;SDS011;30583;48.714;9.386;2023-03-01T14:28:27;20.27;;;13.95;;
44850;SDS011;30583;48.714;9.386;2023-03-01T14:33:25;19.80;;;14.68;;
44850;SDS011;30583;48.714;9.386;2023-03-01T14:38:43;23.60;;;14.77;;
44850;SDS011;30583;48.714;9.386;2023-03-01T14:41:15;18.75;;;13.93;;
44850;SDS011;30583;48.714;9.386;2023-03-01T14:46:24;21.05;;;14.45;;
44850;SDS011;30583;48.714;9.386;2023-03-01T14:49:00;19.17;;;13.93;;
44850;SDS011;30583;48.714;9.386;2023-03-01T14:51:38;25.58;;;15.25;;
44850;SDS011;30583;48.714;9.386;2023-03-01T14:54:26;24.25;;;15.57;;
44850;SDS011;30583;48.714;9.386;2023-03-01T14:57:00;23.55;;;15.73;;
44850;SDS011;30583;48.714;9.386;2023-03-01T14:59:29;24.58;;;15.85;;
44850;SDS011;30583;48.714;9.386;2023-03-01T15:01:55;19.25;;;11.27;;
44850;SDS011;30583;48.714;9.386;2023-03-01T15:04:23;16.83;;;10.00;;
44850;SDS011;30583;48.714;9.386;2023-03-01T15:06:52;13.13;;;8.65;;
44850;SDS011;30583;48.714;9.386;2023-03-01T15:09:19;16.50;;;10.50;;
44850;SDS011;30583;48.714;9.386;2023-03-01T15:11:47;13.13;;;8.35;;
44850;SDS011;30583;48.714;9.386;2023-03-01T15:14:25;15.40;;;10.05;;
44850;SDS011;30583;48.714;9.386;2023-03-01T15:17:28;16.25;;;11.65;;
44850;SDS011;30583;48.714;9.386;2023-03-01T15:19:59;12.98;;;10.32;;
44850;SDS011;30583;48.714;9.386;2023-03-01T15:22:27;19.73;;;14.77;;
44850;SDS011;30583;48.714;9.386;2023-03-01T15:24:53;21.58;;;14.95;;
44850;SDS011;30583;48.714;9.386;2023-03-01T15:27:21;19.00;;;14.52;;
44850;SDS011;30583;48.714;9.386;2023-03-01T15:34:49;21.55;;;13.85;;
44850;SDS011;30583;48.714;9.386;2023-03-01T15:43:00;25.00;;;16.35;;
44850;SDS011;30583;48.714;9.386;2023-03-01T15:45:28;20.85;;;14.93;;
44850;SDS011;30583;48.714;9.386;2023-03-01T15:48:00;22.15;;;14.60;;
44850;SDS011;30583;48.714;9.386;2023-03-01T15:50:32;24.23;;;16.08;;
44850;SDS011;30583;48.714;9.386;2023-03-01T15:53:00;19.45;;;13.60;;
44850;SDS011;30583;48.714;9.386;2023-03-01T15:55:30;18.90;;;13.45;;
44850;SDS011;30583;48.714;9.386;2023-03-01T16:00:42;18.42;;;14.32;;
44850;SDS011;30583;48.714;9.386;2023-03-01T16:03:10;19.55;;;13.57;;
44850;SDS011;30583;48.714;9.386;2023-03-01T16:05:36;20.70;;;13.40;;
44850;SDS011;30583;48.714;9.386;2023-03-01T16:08:03;20.55;;;12.73;;
44850;SDS011;30583;48.714;9.386;2023-03-01T16:10:30;19.23;;;12.98;;
44850;SDS011;30583;48.714;9.386;2023-03-01T16:12:57;21.20;;;13.57;;
44850;SDS011;30583;48.714;9.386;2023-03-01T16:15:25;19.20;;;13.70;;
44850;SDS011;30583;48.714;9.386;2023-03-01T16:17:53;22.60;;;13.32;;
44850;SDS011;30583;48.714;9.386;2023-03-01T16:20:19;21.38;;;13.55;;
44850;SDS011;30583;48.714;9.386;2023-03-01T16:22:45;20.98;;;14.50;;
44850;SDS011;30583;48.714;9.386;2023-03-01T16:25:15;17.60;;;12.25;;
44850;SDS011;30583;48.714;9.386;2023-03-01T16:27:42;21.02;;;13.90;;
44850;SDS011;30583;48.714;9.386;2023-03-01T16:30:12;22.52;;;14.45;;
44850;SDS011;30583;48.714;9.386;2023-03-01T16:32:44;21.17;;;14.98;;
44850;SDS011;30583;48.714;9.386;2023-03-01T16:35:11;23.20;;;14.57;;
44850;SDS011;30583;48.714;9.386;2023-03-01T16:37:38;18.75;;;13.93;;
44850;SDS011;30583;48.714;9.386;2023-03-01T16:40:05;20.48;;;15.13;;
44850;SDS011;30583;48.714;9.386;2023-03-01T16:42:37;20.90;;;14.05;;